createdAt,value
2023-05-09T00:00:18.627Z,29.728
2023-05-09T00:05:15.950Z,29.729
2023-05-09T00:10:18.697Z,29.733
2023-05-09T00:15:18.642Z,29.739
2023-05-09T00:20:15.756Z,29.742
2023-05-09T00:25:18.696Z,29.746
2023-05-09T00:30:15.726Z,29.750
2023-05-09T00:35:18.634Z,29.752
2023-05-09T00:40:18.730Z,29.754
2023-05-09T00:45:15.856Z,29.755
2023-05-09T00:50:18.668Z,29.757
2023-05-09T00:55:18.649Z,29.762
2023-05-09T01:00:18.693Z,29.763
2023-05-09T01:05:18.689Z,29.766
2023-05-09T01:10:15.772Z,29.770
2023-05-09T01:15:18.644Z,29.772
2023-05-09T01:20:15.799Z,29.775
2023-05-09T01:25:15.935Z,29.779
2023-05-09T01:30:18.854Z,29.783
2023-05-09T01:35:18.687Z,29.784
2023-05-09T01:40:18.719Z,29.787
2023-05-09T01:45:18.681Z,29.792
2023-05-09T01:50:18.709Z,29.797
2023-05-09T01:55:15.931Z,29.799
2023-05-09T02:00:18.728Z,29.802
2023-05-09T02:05:18.678Z,29.803
2023-05-09T02:10:18.681Z,29.806
2023-05-09T02:15:15.884Z,29.809
2023-05-09T02:20:18.806Z,29.809
2023-05-09T02:25:18.679Z,29.811
2023-05-09T02:30:18.718Z,29.810
2023-05-09T02:35:16.146Z,29.815
2023-05-09T02:40:18.738Z,29.815
2023-05-09T02:45:18.709Z,29.816
2023-05-09T02:50:18.706Z,29.815
2023-05-09T02:55:15.962Z,29.819
2023-05-09T03:00:15.781Z,29.819
2023-05-09T03:05:18.828Z,29.819
2023-05-09T03:10:18.706Z,29.822
2023-05-09T03:15:18.763Z,29.823
2023-05-09T03:20:18.754Z,29.824
2023-05-09T03:25:15.996Z,29.824
2023-05-09T03:30:15.557Z,29.826
2023-05-09T03:35:18.780Z,29.831
2023-05-09T03:40:15.793Z,29.835
2023-05-09T03:45:16.009Z,29.838
2023-05-09T03:50:18.776Z,29.842
2023-05-09T03:55:18.753Z,29.845
2023-05-09T04:00:20.082Z,29.844
2023-05-09T04:05:20.003Z,29.844
2023-05-09T04:10:20.001Z,29.845
2023-05-09T04:15:19.973Z,29.846
2023-05-09T04:20:19.986Z,29.844
2023-05-09T04:25:17.295Z,29.845
2023-05-09T04:30:17.011Z,29.846
2023-05-09T04:35:19.741Z,29.845
2023-05-09T04:40:20.112Z,29.843
2023-05-09T04:45:19.966Z,29.843
2023-05-09T04:50:17.120Z,29.841
2023-05-09T04:55:17.242Z,29.842
2023-05-09T05:00:20.049Z,29.843
2023-05-09T05:05:24.889Z,29.841
2023-05-09T05:10:20.039Z,29.844
2023-05-09T05:15:19.975Z,29.843
2023-05-09T05:20:20.080Z,29.843
2023-05-09T05:25:17.390Z,29.844
2023-05-09T05:30:20.095Z,29.847
2023-05-09T05:35:20.002Z,29.847
2023-05-09T05:40:20.002Z,29.848
2023-05-09T05:45:17.229Z,29.846
2023-05-09T05:50:17.040Z,29.847
2023-05-09T05:55:17.174Z,29.845
2023-05-09T06:00:20.274Z,29.846
2023-05-09T06:05:20.049Z,29.846
2023-05-09T06:10:20.079Z,29.849
2023-05-09T06:15:20.023Z,29.850
2023-05-09T06:20:17.104Z,29.850
2023-05-09T06:25:20.269Z,29.852
2023-05-09T06:30:28.570Z,29.853
2023-05-09T06:35:20.053Z,29.853
2023-05-09T06:40:17.261Z,29.854
2023-05-09T06:45:20.367Z,29.854
2023-05-09T06:50:20.241Z,29.854
2023-05-09T06:55:20.083Z,29.856
2023-05-09T07:00:20.101Z,29.856
2023-05-09T07:05:17.502Z,29.856
2023-05-09T07:10:17.054Z,29.858
2023-05-09T07:15:32.473Z,29.859
2023-05-09T07:20:20.095Z,29.860
2023-05-09T07:25:20.078Z,29.860
2023-05-09T07:30:20.078Z,29.861
2023-05-09T07:35:17.159Z,29.863
2023-05-09T07:40:20.139Z,29.866
2023-05-09T07:45:22.120Z,29.865
2023-05-09T07:50:20.131Z,29.866
2023-05-09T07:55:20.103Z,29.866
2023-05-09T08:00:17.092Z,29.865
2023-05-09T08:05:17.326Z,29.866
2023-05-09T08:10:20.141Z,29.868
2023-05-09T08:15:20.093Z,29.868
2023-05-09T08:20:20.132Z,29.869
2023-05-09T08:25:20.096Z,29.869
2023-05-09T08:30:16.904Z,29.868
2023-05-09T08:35:20.154Z,29.869
2023-05-09T08:40:20.087Z,29.871
2023-05-09T08:45:20.156Z,29.870
2023-05-09T08:50:17.574Z,29.873
2023-05-09T08:55:17.175Z,29.875
2023-05-09T09:00:20.749Z,29.875
2023-05-09T09:05:39.937Z,29.874
2023-05-09T09:10:20.158Z,29.878
2023-05-09T09:15:17.170Z,29.880
2023-05-09T09:20:20.173Z,29.881
2023-05-09T09:25:20.128Z,29.881
2023-05-09T09:30:17.346Z,29.879
2023-05-09T09:35:20.180Z,29.880
2023-05-09T09:40:20.194Z,29.883
2023-05-09T09:45:20.330Z,29.884
2023-05-09T09:50:20.280Z,29.885
2023-05-09T09:55:20.136Z,29.887
2023-05-09T10:00:20.165Z,29.889
2023-05-09T10:05:20.165Z,29.892
2023-05-09T10:10:20.140Z,29.894
2023-05-09T10:15:20.174Z,29.897
2023-05-09T10:20:17.370Z,29.897
2023-05-09T10:25:17.401Z,29.899
2023-05-09T10:30:17.053Z,29.903
2023-05-09T10:35:20.197Z,29.904
2023-05-09T10:40:20.271Z,29.907
2023-05-09T10:45:20.157Z,29.909
2023-05-09T10:50:20.168Z,29.911
2023-05-09T10:55:20.197Z,29.912
2023-05-09T11:00:17.260Z,29.911
2023-05-09T11:05:17.382Z,29.912
2023-05-09T11:10:17.087Z,29.912
2023-05-09T11:15:17.237Z,29.913
2023-05-09T11:20:17.235Z,29.913
2023-05-09T11:25:20.213Z,29.914
2023-05-09T11:30:20.286Z,29.915
2023-05-09T11:35:17.668Z,29.917
2023-05-09T11:40:20.215Z,29.918
2023-05-09T11:45:20.220Z,29.918
2023-05-09T11:50:20.267Z,29.918
2023-05-09T11:55:20.283Z,29.918
2023-05-09T12:00:20.220Z,29.919
2023-05-09T12:05:20.204Z,29.922
2023-05-09T12:10:20.273Z,29.923
2023-05-09T12:15:20.513Z,29.924
2023-05-09T12:20:20.207Z,29.924
2023-05-09T12:25:17.448Z,29.926
2023-05-09T12:30:20.223Z,29.927
2023-05-09T12:35:20.206Z,29.928
2023-05-09T12:40:20.223Z,29.929
2023-05-09T12:45:20.258Z,29.930
2023-05-09T12:50:20.259Z,29.932
2023-05-09T12:55:17.357Z,29.933
2023-05-09T13:00:20.275Z,29.936
2023-05-09T13:05:20.280Z,29.936
2023-05-09T13:10:17.264Z,29.937
2023-05-09T13:15:17.720Z,29.938
2023-05-09T13:20:20.296Z,29.939
2023-05-09T13:25:17.284Z,29.940
2023-05-09T13:30:20.336Z,29.939
2023-05-09T13:35:20.292Z,29.942
2023-05-09T13:40:17.574Z,29.943
2023-05-09T13:45:20.335Z,29.944
2023-05-09T13:50:20.307Z,29.944
2023-05-09T13:55:17.292Z,29.945
2023-05-09T14:00:20.546Z,29.948
2023-05-09T14:05:20.267Z,29.948
2023-05-09T14:10:20.453Z,29.948
2023-05-09T14:15:20.285Z,29.950
2023-05-09T14:20:20.262Z,29.950
2023-05-09T14:25:20.348Z,29.951
2023-05-09T14:30:20.288Z,29.953
2023-05-09T14:35:20.251Z,29.954
2023-05-09T14:40:20.299Z,29.952
2023-05-09T14:45:17.429Z,29.951
2023-05-09T14:50:20.324Z,29.952
2023-05-09T14:55:17.316Z,29.953
2023-05-09T15:00:22.192Z,29.952
2023-05-09T15:05:17.137Z,29.950
2023-05-09T15:10:20.347Z,29.955
2023-05-09T15:15:17.326Z,29.954
2023-05-09T15:20:20.423Z,29.957
2023-05-09T15:25:20.303Z,29.956
2023-05-09T15:30:20.413Z,29.955
2023-05-09T15:35:20.303Z,29.956
2023-05-09T15:40:17.305Z,29.958
2023-05-09T15:45:17.326Z,29.959
2023-05-09T15:50:20.321Z,29.960
2023-05-09T15:55:20.459Z,29.960
2023-05-09T16:00:20.355Z,29.960
2023-05-09T16:05:20.298Z,29.961
2023-05-09T16:10:17.592Z,29.963
2023-05-09T16:15:17.325Z,29.966
2023-05-09T16:20:17.555Z,29.965
2023-05-09T16:25:20.401Z,29.967
2023-05-09T16:30:17.696Z,29.967
2023-05-09T16:35:20.487Z,29.966
2023-05-09T16:40:20.403Z,29.965
2023-05-09T16:45:20.317Z,29.965
2023-05-09T16:50:20.333Z,29.963
2023-05-09T16:55:20.348Z,29.962
2023-05-09T17:00:17.554Z,29.961
2023-05-09T17:05:17.363Z,29.961
2023-05-09T17:10:20.393Z,29.963
2023-05-09T17:15:20.329Z,29.959
2023-05-09T17:20:20.365Z,29.960
2023-05-09T17:25:20.384Z,29.960
2023-05-09T17:30:22.814Z,29.961
2023-05-09T17:35:20.337Z,29.963
2023-05-09T17:40:20.338Z,29.963
2023-05-09T17:45:20.362Z,29.964
2023-05-09T17:50:18.761Z,29.964
2023-05-09T17:55:18.340Z,29.964
2023-05-09T18:00:18.530Z,29.966
2023-05-09T18:05:18.392Z,29.969
2023-05-09T18:10:20.449Z,29.966
2023-05-09T18:15:18.346Z,29.966
2023-05-09T18:20:18.661Z,29.965
2023-05-09T18:25:18.340Z,29.963
2023-05-09T18:30:18.398Z,29.960
2023-05-09T18:35:18.402Z,29.961
2023-05-09T18:40:15.956Z,29.957
2023-05-09T18:45:18.430Z,29.958
2023-05-09T18:50:18.821Z,29.959
2023-05-09T18:55:18.388Z,29.956
2023-05-09T19:00:15.678Z,29.954
2023-05-09T19:05:15.455Z,29.953
2023-05-09T19:10:18.724Z,29.952
2023-05-09T19:15:15.433Z,29.950
2023-05-09T19:20:18.841Z,29.952
2023-05-09T19:25:15.374Z,29.951
2023-05-09T19:30:18.498Z,29.948
2023-05-09T19:35:18.466Z,29.947
2023-05-09T19:40:18.491Z,29.944
2023-05-09T19:45:18.456Z,29.947
2023-05-09T19:50:15.648Z,29.946
2023-05-09T19:55:15.440Z,29.942
2023-05-09T20:00:15.701Z,29.942
2023-05-09T20:05:18.458Z,29.940
2023-05-09T20:10:15.857Z,29.937
2023-05-09T20:15:18.442Z,29.937
2023-05-09T20:20:18.753Z,29.935
2023-05-09T20:25:18.402Z,29.935
2023-05-09T20:30:18.417Z,29.933
2023-05-09T20:35:18.405Z,29.932
2023-05-09T20:40:15.702Z,29.933
2023-05-09T20:45:18.431Z,29.932
2023-05-09T20:50:18.718Z,29.933
2023-05-09T20:55:18.501Z,29.933
2023-05-09T21:00:18.800Z,29.933
2023-05-09T21:05:18.455Z,29.932
2023-05-09T21:10:18.620Z,29.933
2023-05-09T21:15:18.451Z,29.935
2023-05-09T21:20:15.645Z,29.933
2023-05-09T21:25:15.460Z,29.934
2023-05-09T21:30:15.735Z,29.931
2023-05-09T21:35:18.443Z,29.931
2023-05-09T21:40:18.547Z,29.935
2023-05-09T21:45:18.469Z,29.935
2023-05-09T21:50:18.675Z,29.935
2023-05-09T21:55:18.445Z,29.936
2023-05-09T22:00:15.752Z,29.934
2023-05-09T22:05:15.527Z,29.934
2023-05-09T22:10:18.549Z,29.934
2023-05-09T22:15:18.444Z,29.936
2023-05-09T22:20:15.742Z,29.938
2023-05-09T22:25:18.459Z,29.938
2023-05-09T22:30:15.916Z,29.938
2023-05-09T22:35:18.491Z,29.939
2023-05-09T22:40:18.503Z,29.941
2023-05-09T22:45:18.523Z,29.942
2023-05-09T22:50:18.678Z,29.942
2023-05-09T22:55:18.537Z,29.943
2023-05-09T23:00:18.628Z,29.944
2023-05-09T23:05:15.543Z,29.947
2023-05-09T23:10:18.744Z,29.949
2023-05-09T23:15:18.487Z,29.950
2023-05-09T23:20:18.752Z,29.951
2023-05-09T23:25:18.542Z,29.953
2023-05-09T23:30:15.897Z,29.955
2023-05-09T23:35:18.618Z,29.955
2023-05-09T23:40:15.959Z,29.957
2023-05-09T23:45:19.030Z,29.959
2023-05-09T23:50:18.835Z,29.960
2023-05-09T23:55:18.509Z,29.961
